sensor_id;sensor_type;location;lat;lon;timestamp;P1;durP1;ratioP1;P2;durP2;ratioP2
18499;SDS011;9379;52.134;11.576;2023-07-20T00:01:50;11.77;;;1.55;;
18499;SDS011;9379;52.134;11.576;2023-07-20T00:04:17;2.22;;;2.05;;
18499;SDS011;9379;52.134;11.576;2023-07-20T00:06:43;7.78;;;3.53;;
18499;SDS011;9379;52.134;11.576;2023-07-20T00:09:12;3.67;;;1.25;;
18499;SDS011;9379;52.134;11.576;2023-07-20T00:11:39;1.60;;;1.20;;
18499;SDS011;9379;52.134;11.576;2023-07-20T00:14:06;1.95;;;1.58;;
18499;SDS011;9379;52.134;11.576;2023-07-20T00:16:33;6.85;;;2.13;;
18499;SDS011;9379;52.134;11.576;2023-07-20T00:19:00;2.78;;;2.28;;
18499;SDS011;9379;52.134;11.576;2023-07-20T00:21:26;1.42;;;1.35;;
18499;SDS011;9379;52.134;11.576;2023-07-20T00:23:53;5.15;;;3.45;;
18499;SDS011;9379;52.134;11.576;2023-07-20T00:26:21;1.48;;;1.38;;
18499;SDS011;9379;52.134;11.576;2023-07-20T00:28:49;2.33;;;2.13;;
18499;SDS011;9379;52.134;11.576;2023-07-20T00:31:16;2.78;;;1.85;;
18499;SDS011;9379;52.134;11.576;2023-07-20T00:33:43;4.57;;;2.15;;
18499;SDS011;9379;52.134;11.576;2023-07-20T00:36:09;4.38;;;2.20;;
18499;SDS011;9379;52.134;11.576;2023-07-20T00:38:36;3.17;;;1.13;;
18499;SDS011;9379;52.134;11.576;2023-07-20T00:41:03;5.22;;;1.90;;
18499;SDS011;9379;52.134;11.576;2023-07-20T00:43:31;1.55;;;1.45;;
18499;SDS011;9379;52.134;11.576;2023-07-20T00:45:58;11.85;;;1.88;;
18499;SDS011;9379;52.134;11.576;2023-07-20T00:48:25;1.85;;;1.70;;
18499;SDS011;9379;52.134;11.576;2023-07-20T00:50:52;3.05;;;2.85;;
18499;SDS011;9379;52.134;11.576;2023-07-20T00:53:19;7.25;;;2.65;;
18499;SDS011;9379;52.134;11.576;2023-07-20T00:55:46;2.33;;;1.75;;
18499;SDS011;9379;52.134;11.576;2023-07-20T00:58:13;1.20;;;1.20;;
18499;SDS011;9379;52.134;11.576;2023-07-20T01:00:41;4.68;;;1.00;;
18499;SDS011;9379;52.134;11.576;2023-07-20T01:03:08;5.40;;;2.13;;
18499;SDS011;9379;52.134;11.576;2023-07-20T01:05:37;1.92;;;1.27;;
18499;SDS011;9379;52.134;11.576;2023-07-20T01:08:10;7.88;;;1.45;;
18499;SDS011;9379;52.134;11.576;2023-07-20T01:10:41;1.77;;;1.67;;
18499;SDS011;9379;52.134;11.576;2023-07-20T01:13:14;12.80;;;2.65;;
18499;SDS011;9379;52.134;11.576;2023-07-20T01:15:50;1.35;;;1.25;;
18499;SDS011;9379;52.134;11.576;2023-07-20T01:18:17;3.30;;;1.70;;
18499;SDS011;9379;52.134;11.576;2023-07-20T01:20:44;2.30;;;1.48;;
18499;SDS011;9379;52.134;11.576;2023-07-20T01:26:27;4.22;;;1.50;;
18499;SDS011;9379;52.134;11.576;2023-07-20T01:29:35;1.77;;;1.60;;
18499;SDS011;9379;52.134;11.576;2023-07-20T01:32:16;2.25;;;0.90;;
18499;SDS011;9379;52.134;11.576;2023-07-20T01:34:45;1.30;;;1.20;;
18499;SDS011;9379;52.134;11.576;2023-07-20T01:37:14;1.17;;;1.08;;
18499;SDS011;9379;52.134;11.576;2023-07-20T01:39:45;5.60;;;2.15;;
18499;SDS011;9379;52.134;11.576;2023-07-20T01:42:12;1.38;;;1.27;;
18499;SDS011;9379;52.134;11.576;2023-07-20T01:44:39;2.10;;;1.92;;
18499;SDS011;9379;52.134;11.576;2023-07-20T01:47:05;1.75;;;1.63;;
18499;SDS011;9379;52.134;11.576;2023-07-20T01:49:34;1.20;;;1.10;;
18499;SDS011;9379;52.134;11.576;2023-07-20T01:52:00;1.42;;;1.33;;
18499;SDS011;9379;52.134;11.576;2023-07-20T01:54:27;1.67;;;1.55;;
18499;SDS011;9379;52.134;11.576;2023-07-20T01:56:54;1.50;;;1.40;;
18499;SDS011;9379;52.134;11.576;2023-07-20T01:59:20;3.17;;;1.80;;
18499;SDS011;9379;52.134;11.576;2023-07-20T02:01:47;1.70;;;1.60;;
18499;SDS011;9379;52.134;11.576;2023-07-20T02:04:14;3.85;;;2.47;;
18499;SDS011;9379;52.134;11.576;2023-07-20T02:06:42;6.18;;;2.55;;
18499;SDS011;9379;52.134;11.576;2023-07-20T02:09:09;1.50;;;1.40;;
18499;SDS011;9379;52.134;11.576;2023-07-20T02:11:35;2.38;;;2.17;;
18499;SDS011;9379;52.134;11.576;2023-07-20T02:14:02;2.50;;;1.65;;
18499;SDS011;9379;52.134;11.576;2023-07-20T02:16:29;10.10;;;2.85;;
18499;SDS011;9379;52.134;11.576;2023-07-20T02:18:55;2.10;;;1.90;;
18499;SDS011;9379;52.134;11.576;2023-07-20T02:21:23;1.60;;;1.50;;
18499;SDS011;9379;52.134;11.576;2023-07-20T02:23:51;1.02;;;0.93;;
18499;SDS011;9379;52.134;11.576;2023-07-20T02:26:18;1.30;;;1.20;;
18499;SDS011;9379;52.134;11.576;2023-07-20T02:28:44;10.23;;;2.63;;
18499;SDS011;9379;52.134;11.576;2023-07-20T02:31:11;1.85;;;1.75;;
18499;SDS011;9379;52.134;11.576;2023-07-20T02:33:38;3.05;;;2.20;;
18499;SDS011;9379;52.134;11.576;2023-07-20T02:36:05;5.15;;;1.88;;
18499;SDS011;9379;52.134;11.576;2023-07-20T02:38:31;2.50;;;2.30;;
18499;SDS011;9379;52.134;11.576;2023-07-20T02:40:59;1.73;;;1.63;;
18499;SDS011;9379;52.134;11.576;2023-07-20T02:43:26;6.72;;;2.75;;
18499;SDS011;9379;52.134;11.576;2023-07-20T02:45:53;9.38;;;2.05;;
18499;SDS011;9379;52.134;11.576;2023-07-20T02:48:20;4.88;;;2.05;;
18499;SDS011;9379;52.134;11.576;2023-07-20T02:50:47;11.48;;;2.90;;
18499;SDS011;9379;52.134;11.576;2023-07-20T02:53:13;10.13;;;2.80;;
18499;SDS011;9379;52.134;11.576;2023-07-20T02:55:40;14.90;;;2.58;;
18499;SDS011;9379;52.134;11.576;2023-07-20T02:58:08;2.20;;;2.10;;
18499;SDS011;9379;52.134;11.576;2023-07-20T03:00:35;2.67;;;1.50;;
18499;SDS011;9379;52.134;11.576;2023-07-20T03:03:02;2.55;;;2.22;;
18499;SDS011;9379;52.134;11.576;2023-07-20T03:05:28;9.25;;;4.13;;
18499;SDS011;9379;52.134;11.576;2023-07-20T03:07:55;8.52;;;2.67;;
18499;SDS011;9379;52.134;11.576;2023-07-20T03:10:22;2.97;;;1.92;;
18499;SDS011;9379;52.134;11.576;2023-07-20T03:12:49;3.17;;;1.90;;
18499;SDS011;9379;52.134;11.576;2023-07-20T03:15:17;1.60;;;1.50;;
18499;SDS011;9379;52.134;11.576;2023-07-20T03:17:44;5.15;;;1.83;;
18499;SDS011;9379;52.134;11.576;2023-07-20T03:20:11;2.35;;;2.15;;
18499;SDS011;9379;52.134;11.576;2023-07-20T03:22:38;4.95;;;2.90;;
18499;SDS011;9379;52.134;11.576;2023-07-20T03:25:05;21.65;;;4.88;;
18499;SDS011;9379;52.134;11.576;2023-07-20T03:27:32;1.50;;;1.40;;
18499;SDS011;9379;52.134;11.576;2023-07-20T03:29:58;2.58;;;2.10;;
18499;SDS011;9379;52.134;11.576;2023-07-20T03:32:27;2.47;;;1.60;;
18499;SDS011;9379;52.134;11.576;2023-07-20T03:34:54;11.25;;;3.15;;
18499;SDS011;9379;52.134;11.576;2023-07-20T03:37:20;3.10;;;2.33;;
18499;SDS011;9379;52.134;11.576;2023-07-20T03:39:50;3.25;;;2.85;;
18499;SDS011;9379;52.134;11.576;2023-07-20T03:42:17;5.50;;;1.40;;
18499;SDS011;9379;52.134;11.576;2023-07-20T03:44:43;1.73;;;1.02;;
18499;SDS011;9379;52.134;11.576;2023-07-20T03:47:10;6.05;;;2.75;;
18499;SDS011;9379;52.134;11.576;2023-07-20T03:49:38;6.13;;;1.77;;
18499;SDS011;9379;52.134;11.576;2023-07-20T03:52:05;4.13;;;2.50;;
18499;SDS011;9379;52.134;11.576;2023-07-20T03:54:32;4.65;;;2.33;;
18499;SDS011;9379;52.134;11.576;2023-07-20T03:56:59;5.47;;;1.75;;
18499;SDS011;9379;52.134;11.576;2023-07-20T03:59:26;1.80;;;1.70;;
18499;SDS011;9379;52.134;11.576;2023-07-20T04:01:53;6.60;;;2.38;;
18499;SDS011;9379;52.134;11.576;2023-07-20T04:04:20;2.40;;;2.20;;
18499;SDS011;9379;52.134;11.576;2023-07-20T04:06:48;10.15;;;2.22;;
18499;SDS011;9379;52.134;11.576;2023-07-20T04:09:15;12.05;;;3.45;;
18499;SDS011;9379;52.134;11.576;2023-07-20T04:11:41;7.90;;;2.00;;
18499;SDS011;9379;52.134;11.576;2023-07-20T04:14:08;1.30;;;1.30;;
18499;SDS011;9379;52.134;11.576;2023-07-20T04:16:35;2.92;;;2.03;;
18499;SDS011;9379;52.134;11.576;2023-07-20T04:19:02;8.32;;;1.80;;
18499;SDS011;9379;52.134;11.576;2023-07-20T04:21:29;3.08;;;1.52;;
18499;SDS011;9379;52.134;11.576;2023-07-20T04:23:57;1.55;;;1.45;;
18499;SDS011;9379;52.134;11.576;2023-07-20T04:26:24;1.70;;;1.30;;
18499;SDS011;9379;52.134;11.576;2023-07-20T04:28:50;5.05;;;2.38;;
18499;SDS011;9379;52.134;11.576;2023-07-20T04:31:18;8.80;;;1.90;;
18499;SDS011;9379;52.134;11.576;2023-07-20T04:33:44;1.30;;;1.20;;
18499;SDS011;9379;52.134;11.576;2023-07-20T04:36:11;2.22;;;1.40;;
18499;SDS011;9379;52.134;11.576;2023-07-20T04:38:39;2.00;;;1.90;;
18499;SDS011;9379;52.134;11.576;2023-07-20T04:41:08;1.58;;;0.98;;
18499;SDS011;9379;52.134;11.576;2023-07-20T04:43:37;1.20;;;1.10;;
18499;SDS011;9379;52.134;11.576;2023-07-20T04:46:08;2.03;;;1.83;;
18499;SDS011;9379;52.134;11.576;2023-07-20T04:48:34;2.47;;;2.28;;
18499;SDS011;9379;52.134;11.576;2023-07-20T04:51:02;4.20;;;2.10;;
18499;SDS011;9379;52.134;11.576;2023-07-20T04:53:29;1.83;;;1.73;;
18499;SDS011;9379;52.134;11.576;2023-07-20T04:55:56;1.33;;;1.23;;
18499;SDS011;9379;52.134;11.576;2023-07-20T04:58:24;2.25;;;2.05;;
18499;SDS011;9379;52.134;11.576;2023-07-20T05:00:51;4.10;;;2.50;;
18499;SDS011;9379;52.134;11.576;2023-07-20T05:03:18;1.55;;;1.45;;
18499;SDS011;9379;52.134;11.576;2023-07-20T05:05:46;4.38;;;1.42;;
18499;SDS011;9379;52.134;11.576;2023-07-20T05:08:13;1.10;;;1.05;;
18499;SDS011;9379;52.134;11.576;2023-07-20T05:10:41;1.15;;;1.08;;
18499;SDS011;9379;52.134;11.576;2023-07-20T05:13:07;1.27;;;1.17;;
18499;SDS011;9379;52.134;11.576;2023-07-20T05:15:36;0.77;;;0.77;;
18499;SDS011;9379;52.134;11.576;2023-07-20T05:18:02;2.95;;;1.33;;
18499;SDS011;9379;52.134;11.576;2023-07-20T05:20:29;0.90;;;0.90;;
18499;SDS011;9379;52.134;11.576;2023-07-20T05:22:58;2.50;;;1.13;;
18499;SDS011;9379;52.134;11.576;2023-07-20T05:25:25;1.08;;;1.05;;
18499;SDS011;9379;52.134;11.576;2023-07-20T05:27:51;2.25;;;0.82;;
18499;SDS011;9379;52.134;11.576;2023-07-20T05:30:20;1.13;;;1.00;;
18499;SDS011;9379;52.134;11.576;2023-07-20T05:32:48;0.70;;;0.70;;
18499;SDS011;9379;52.134;11.576;2023-07-20T05:35:17;1.05;;;0.68;;
18499;SDS011;9379;52.134;11.576;2023-07-20T05:37:44;3.75;;;0.50;;
18499;SDS011;9379;52.134;11.576;2023-07-20T05:40:11;0.70;;;0.65;;
18499;SDS011;9379;52.134;11.576;2023-07-20T05:42:39;1.17;;;0.82;;
18499;SDS011;9379;52.134;11.576;2023-07-20T05:45:06;0.75;;;0.75;;
18499;SDS011;9379;52.134;11.576;2023-07-20T05:47:33;0.82;;;0.60;;
18499;SDS011;9379;52.134;11.576;2023-07-20T05:50:02;0.80;;;0.80;;
18499;SDS011;9379;52.134;11.576;2023-07-20T05:52:29;0.65;;;0.63;;
18499;SDS011;9379;52.134;11.576;2023-07-20T05:54:56;0.50;;;0.50;;
18499;SDS011;9379;52.134;11.576;2023-07-20T05:57:22;2.75;;;0.57;;
18499;SDS011;9379;52.134;11.576;2023-07-20T05:59:49;0.50;;;0.50;;
18499;SDS011;9379;52.134;11.576;2023-07-20T06:02:16;1.95;;;1.10;;
18499;SDS011;9379;52.134;11.576;2023-07-20T06:04:43;0.57;;;0.57;;
18499;SDS011;9379;52.134;11.576;2023-07-20T06:07:11;0.80;;;0.68;;
18499;SDS011;9379;52.134;11.576;2023-07-20T06:09:38;0.65;;;0.65;;
18499;SDS011;9379;52.134;11.576;2023-07-20T06:12:05;0.82;;;0.82;;
18499;SDS011;9379;52.134;11.576;2023-07-20T06:14:32;0.68;;;0.68;;
18499;SDS011;9379;52.134;11.576;2023-07-20T06:16:59;0.47;;;0.47;;
18499;SDS011;9379;52.134;11.576;2023-07-20T06:19:26;0.88;;;0.75;;
18499;SDS011;9379;52.134;11.576;2023-07-20T06:21:52;1.25;;;1.15;;
18499;SDS011;9379;52.134;11.576;2023-07-20T06:24:20;0.60;;;0.60;;
18499;SDS011;9379;52.134;11.576;2023-07-20T06:26:47;0.70;;;0.70;;
18499;SDS011;9379;52.134;11.576;2023-07-20T06:29:14;0.63;;;0.60;;
18499;SDS011;9379;52.134;11.576;2023-07-20T06:31:41;0.82;;;0.82;;
18499;SDS011;9379;52.134;11.576;2023-07-20T06:34:07;0.73;;;0.73;;
18499;SDS011;9379;52.134;11.576;2023-07-20T06:36:34;0.93;;;0.85;;
18499;SDS011;9379;52.134;11.576;2023-07-20T06:39:01;0.98;;;0.90;;
18499;SDS011;9379;52.134;11.576;2023-07-20T06:41:29;0.73;;;0.73;;
18499;SDS011;9379;52.134;11.576;2023-07-20T06:43:56;0.60;;;0.60;;
18499;SDS011;9379;52.134;11.576;2023-07-20T06:46:24;0.57;;;0.57;;
18499;SDS011;9379;52.134;11.576;2023-07-20T06:48:51;1.45;;;0.88;;
18499;SDS011;9379;52.134;11.576;2023-07-20T06:51:18;0.65;;;0.65;;
18499;SDS011;9379;52.134;11.576;2023-07-20T06:53:45;0.50;;;0.50;;
18499;SDS011;9379;52.134;11.576;2023-07-20T06:56:12;0.70;;;0.60;;
18499;SDS011;9379;52.134;11.576;2023-07-20T06:58:40;0.40;;;0.40;;
18499;SDS011;9379;52.134;11.576;2023-07-20T07:01:07;0.50;;;0.50;;
18499;SDS011;9379;52.134;11.576;2023-07-20T07:03:34;0.75;;;0.70;;
18499;SDS011;9379;52.134;11.576;2023-07-20T07:06:02;0.60;;;0.60;;
18499;SDS011;9379;52.134;11.576;2023-07-20T07:08:28;0.80;;;0.60;;
18499;SDS011;9379;52.134;11.576;2023-07-20T07:10:55;0.50;;;0.50;;
18499;SDS011;9379;52.134;11.576;2023-07-20T07:13:22;3.08;;;0.60;;
18499;SDS011;9379;52.134;11.576;2023-07-20T07:15:51;11.10;;;1.40;;
18499;SDS011;9379;52.134;11.576;2023-07-20T07:18:18;4.13;;;0.80;;
18499;SDS011;9379;52.134;11.576;2023-07-20T07:20:54;0.63;;;0.63;;
18499;SDS011;9379;52.134;11.576;2023-07-20T07:23:21;0.90;;;0.90;;
18499;SDS011;9379;52.134;11.576;2023-07-20T07:25:48;0.40;;;0.40;;
18499;SDS011;9379;52.134;11.576;2023-07-20T07:28:15;0.90;;;0.30;;
18499;SDS011;9379;52.134;11.576;2023-07-20T07:30:42;0.57;;;0.57;;
18499;SDS011;9379;52.134;11.576;2023-07-20T07:33:10;0.45;;;0.45;;
18499;SDS011;9379;52.134;11.576;2023-07-20T07:35:37;2.17;;;1.15;;
18499;SDS011;9379;52.134;11.576;2023-07-20T07:38:04;0.70;;;0.70;;
18499;SDS011;9379;52.134;11.576;2023-07-20T07:40:33;0.40;;;0.40;;
18499;SDS011;9379;52.134;11.576;2023-07-20T07:43:00;0.43;;;0.43;;
18499;SDS011;9379;52.134;11.576;2023-07-20T07:45:27;0.50;;;0.50;;
18499;SDS011;9379;52.134;11.576;2023-07-20T07:47:54;1.55;;;0.45;;
18499;SDS011;9379;52.134;11.576;2023-07-20T07:50:22;0.50;;;0.50;;
18499;SDS011;9379;52.134;11.576;2023-07-20T07:52:48;0.50;;;0.50;;
18499;SDS011;9379;52.134;11.576;2023-07-20T07:55:15;1.85;;;0.45;;
18499;SDS011;9379;52.134;11.576;2023-07-20T07:57:43;0.93;;;0.60;;
18499;SDS011;9379;52.134;11.576;2023-07-20T08:00:10;0.45;;;0.45;;
18499;SDS011;9379;52.134;11.576;2023-07-20T08:02:39;0.30;;;0.30;;
18499;SDS011;9379;52.134;11.576;2023-07-20T08:05:07;0.50;;;0.50;;
18499;SDS011;9379;52.134;11.576;2023-07-20T08:07:35;0.88;;;0.60;;
18499;SDS011;9379;52.134;11.576;2023-07-20T08:10:03;0.40;;;0.25;;
18499;SDS011;9379;52.134;11.576;2023-07-20T08:12:30;0.57;;;0.55;;
18499;SDS011;9379;52.134;11.576;2023-07-20T08:14:57;0.70;;;0.50;;
18499;SDS011;9379;52.134;11.576;2023-07-20T08:17:23;0.85;;;0.60;;
18499;SDS011;9379;52.134;11.576;2023-07-20T08:19:50;0.30;;;0.30;;
18499;SDS011;9379;52.134;11.576;2023-07-20T08:22:17;0.40;;;0.40;;
18499;SDS011;9379;52.134;11.576;2023-07-20T08:24:45;0.40;;;0.40;;
18499;SDS011;9379;52.134;11.576;2023-07-20T08:27:12;1.10;;;1.00;;
18499;SDS011;9379;52.134;11.576;2023-07-20T08:29:39;0.70;;;0.70;;
18499;SDS011;9379;52.134;11.576;2023-07-20T08:32:06;0.60;;;0.60;;
18499;SDS011;9379;52.134;11.576;2023-07-20T08:34:33;0.55;;;0.55;;
18499;SDS011;9379;52.134;11.576;2023-07-20T08:37:00;0.45;;;0.45;;
18499;SDS011;9379;52.134;11.576;2023-07-20T08:39:26;0.60;;;0.60;;
18499;SDS011;9379;52.134;11.576;2023-07-20T08:41:55;0.88;;;0.88;;
18499;SDS011;9379;52.134;11.576;2023-07-20T08:44:22;1.60;;;0.80;;
18499;SDS011;9379;52.134;11.576;2023-07-20T08:46:52;2.00;;;1.25;;
18499;SDS011;9379;52.134;11.576;2023-07-20T08:49:20;1.13;;;0.55;;
18499;SDS011;9379;52.134;11.576;2023-07-20T08:51:47;0.77;;;0.70;;
18499;SDS011;9379;52.134;11.576;2023-07-20T08:54:15;1.15;;;0.90;;
18499;SDS011;9379;52.134;11.576;2023-07-20T08:56:42;0.93;;;0.93;;
18499;SDS011;9379;52.134;11.576;2023-07-20T08:59:13;0.82;;;0.82;;
18499;SDS011;9379;52.134;11.576;2023-07-20T09:01:44;1.10;;;1.00;;
18499;SDS011;9379;52.134;11.576;2023-07-20T09:04:11;0.95;;;0.95;;
18499;SDS011;9379;52.134;11.576;2023-07-20T09:06:38;1.58;;;1.48;;
18499;SDS011;9379;52.134;11.576;2023-07-20T09:09:05;2.50;;;2.30;;
18499;SDS011;9379;52.134;11.576;2023-07-20T09:11:32;2.10;;;2.00;;
18499;SDS011;9379;52.134;11.576;2023-07-20T09:14:03;2.10;;;1.98;;
18499;SDS011;9379;52.134;11.576;2023-07-20T09:16:31;1.85;;;1.70;;
18499;SDS011;9379;52.134;11.576;2023-07-20T09:18:58;2.60;;;2.40;;
18499;SDS011;9379;52.134;11.576;2023-07-20T09:21:28;1.25;;;1.15;;
18499;SDS011;9379;52.134;11.576;2023-07-20T09:23:56;0.95;;;0.90;;
18499;SDS011;9379;52.134;11.576;2023-07-20T09:26:23;1.48;;;1.38;;
18499;SDS011;9379;52.134;11.576;2023-07-20T09:28:51;1.50;;;1.40;;
18499;SDS011;9379;52.134;11.576;2023-07-20T09:31:20;1.20;;;0.90;;
18499;SDS011;9379;52.134;11.576;2023-07-20T09:33:49;0.80;;;0.80;;
18499;SDS011;9379;52.134;11.576;2023-07-20T09:36:18;1.15;;;1.05;;
18499;SDS011;9379;52.134;11.576;2023-07-20T09:38:44;1.30;;;1.20;;
18499;SDS011;9379;52.134;11.576;2023-07-20T09:41:13;2.38;;;1.20;;
18499;SDS011;9379;52.134;11.576;2023-07-20T09:43:40;1.67;;;0.98;;
18499;SDS011;9379;52.134;11.576;2023-07-20T09:46:07;2.33;;;1.25;;
18499;SDS011;9379;52.134;11.576;2023-07-20T09:48:34;0.82;;;0.80;;
18499;SDS011;9379;52.134;11.576;2023-07-20T09:51:02;0.55;;;0.40;;
18499;SDS011;9379;52.134;11.576;2023-07-20T09:53:30;1.17;;;1.05;;
18499;SDS011;9379;52.134;11.576;2023-07-20T09:55:59;0.50;;;0.50;;
18499;SDS011;9379;52.134;11.576;2023-07-20T09:58:26;0.30;;;0.30;;
18499;SDS011;9379;52.134;11.576;2023-07-20T10:00:54;0.70;;;0.65;;
18499;SDS011;9379;52.134;11.576;2023-07-20T10:03:28;0.40;;;0.40;;
18499;SDS011;9379;52.134;11.576;2023-07-20T10:05:57;0.50;;;0.40;;
18499;SDS011;9379;52.134;11.576;2023-07-20T10:08:28;0.22;;;0.22;;
18499;SDS011;9379;52.134;11.576;2023-07-20T10:10:57;0.30;;;0.30;;
18499;SDS011;9379;52.134;11.576;2023-07-20T10:13:26;0.57;;;0.40;;
18499;SDS011;9379;52.134;11.576;2023-07-20T10:15:54;0.20;;;0.20;;
18499;SDS011;9379;52.134;11.576;2023-07-20T10:18:25;3.50;;;0.30;;
18499;SDS011;9379;52.134;11.576;2023-07-20T10:20:55;1.55;;;0.40;;
18499;SDS011;9379;52.134;11.576;2023-07-20T10:23:27;1.15;;;0.60;;
18499;SDS011;9379;52.134;11.576;2023-07-20T10:25:56;1.15;;;0.47;;
18499;SDS011;9379;52.134;11.576;2023-07-20T10:28:25;0.20;;;0.20;;
18499;SDS011;9379;52.134;11.576;2023-07-20T10:30:52;1.05;;;0.65;;
18499;SDS011;9379;52.134;11.576;2023-07-20T10:33:19;2.15;;;0.38;;
18499;SDS011;9379;52.134;11.576;2023-07-20T10:35:50;0.40;;;0.40;;
18499;SDS011;9379;52.134;11.576;2023-07-20T10:38:17;0.68;;;0.65;;
18499;SDS011;9379;52.134;11.576;2023-07-20T10:40:53;0.30;;;0.22;;
18499;SDS011;9379;52.134;11.576;2023-07-20T10:43:21;0.68;;;0.60;;
18499;SDS011;9379;52.134;11.576;2023-07-20T10:45:48;0.57;;;0.40;;
18499;SDS011;9379;52.134;11.576;2023-07-20T10:48:16;0.30;;;0.30;;
18499;SDS011;9379;52.134;11.576;2023-07-20T10:50:45;0.50;;;0.50;;
18499;SDS011;9379;52.134;11.576;2023-07-20T10:53:13;0.20;;;0.20;;
18499;SDS011;9379;52.134;11.576;2023-07-20T10:55:41;0.20;;;0.20;;
18499;SDS011;9379;52.134;11.576;2023-07-20T10:58:15;0.73;;;0.40;;
18499;SDS011;9379;52.134;11.576;2023-07-20T11:00:55;1.75;;;0.28;;
18499;SDS011;9379;52.134;11.576;2023-07-20T11:03:28;0.20;;;0.20;;
18499;SDS011;9379;52.134;11.576;2023-07-20T11:05:56;0.30;;;0.20;;
18499;SDS011;9379;52.134;11.576;2023-07-20T11:11:21;0.20;;;0.20;;
18499;SDS011;9379;52.134;11.576;2023-07-20T11:13:59;0.40;;;0.38;;
18499;SDS011;9379;52.134;11.576;2023-07-20T11:16:34;0.40;;;0.40;;
18499;SDS011;9379;52.134;11.576;2023-07-20T11:19:02;2.30;;;1.25;;
18499;SDS011;9379;52.134;11.576;2023-07-20T11:21:29;0.50;;;0.47;;
18499;SDS011;9379;52.134;11.576;2023-07-20T11:24:03;0.50;;;0.50;;
18499;SDS011;9379;52.134;11.576;2023-07-20T11:26:39;0.20;;;0.20;;
18499;SDS011;9379;52.134;11.576;2023-07-20T11:29:07;0.63;;;0.40;;
18499;SDS011;9379;52.134;11.576;2023-07-20T11:31:37;0.32;;;0.30;;
18499;SDS011;9379;52.134;11.576;2023-07-20T11:34:04;0.20;;;0.10;;
18499;SDS011;9379;52.134;11.576;2023-07-20T11:36:32;0.30;;;0.30;;
18499;SDS011;9379;52.134;11.576;2023-07-20T11:38:59;1.20;;;0.38;;
18499;SDS011;9379;52.134;11.576;2023-07-20T11:41:28;0.40;;;0.20;;
18499;SDS011;9379;52.134;11.576;2023-07-20T11:43:56;0.30;;;0.30;;
18499;SDS011;9379;52.134;11.576;2023-07-20T11:46:24;0.68;;;0.32;;
18499;SDS011;9379;52.134;11.576;2023-07-20T11:48:55;0.40;;;0.30;;
18499;SDS011;9379;52.134;11.576;2023-07-20T11:51:24;1.85;;;0.68;;
18499;SDS011;9379;52.134;11.576;2023-07-20T11:53:52;0.20;;;0.20;;
18499;SDS011;9379;52.134;11.576;2023-07-20T11:56:19;0.40;;;0.32;;
18499;SDS011;9379;52.134;11.576;2023-07-20T11:58:46;0.50;;;0.40;;
18499;SDS011;9379;52.134;11.576;2023-07-20T12:01:13;0.20;;;0.20;;
18499;SDS011;9379;52.134;11.576;2023-07-20T12:03:42;0.50;;;0.50;;
18499;SDS011;9379;52.134;11.576;2023-07-20T12:06:09;0.93;;;0.88;;
18499;SDS011;9379;52.134;11.576;2023-07-20T12:08:38;0.30;;;0.30;;
18499;SDS011;9379;52.134;11.576;2023-07-20T12:11:06;0.50;;;0.50;;
18499;SDS011;9379;52.134;11.576;2023-07-20T12:13:36;0.80;;;0.73;;
18499;SDS011;9379;52.134;11.576;2023-07-20T12:16:10;0.40;;;0.30;;
18499;SDS011;9379;52.134;11.576;2023-07-20T12:18:38;0.30;;;0.30;;
18499;SDS011;9379;52.134;11.576;2023-07-20T12:21:06;0.45;;;0.43;;
18499;SDS011;9379;52.134;11.576;2023-07-20T12:23:37;0.55;;;0.52;;
18499;SDS011;9379;52.134;11.576;2023-07-20T12:26:07;0.35;;;0.30;;
18499;SDS011;9379;52.134;11.576;2023-07-20T12:28:35;0.40;;;0.30;;
18499;SDS011;9379;52.134;11.576;2023-07-20T12:31:05;0.32;;;0.30;;
18499;SDS011;9379;52.134;11.576;2023-07-20T12:33:33;0.57;;;0.57;;
18499;SDS011;9379;52.134;11.576;2023-07-20T12:35:59;0.55;;;0.38;;
18499;SDS011;9379;52.134;11.576;2023-07-20T12:38:28;2.00;;;1.20;;
18499;SDS011;9379;52.134;11.576;2023-07-20T12:40:55;0.20;;;0.20;;
18499;SDS011;9379;52.134;11.576;2023-07-20T12:43:23;0.40;;;0.30;;
18499;SDS011;9379;52.134;11.576;2023-07-20T12:45:50;0.40;;;0.40;;
18499;SDS011;9379;52.134;11.576;2023-07-20T12:48:17;0.70;;;0.60;;
18499;SDS011;9379;52.134;11.576;2023-07-20T12:50:44;1.15;;;0.30;;
18499;SDS011;9379;52.134;11.576;2023-07-20T12:53:11;0.40;;;0.40;;
18499;SDS011;9379;52.134;11.576;2023-07-20T12:55:39;0.40;;;0.40;;
18499;SDS011;9379;52.134;11.576;2023-07-20T12:58:06;0.30;;;0.30;;
18499;SDS011;9379;52.134;11.576;2023-07-20T13:00:33;0.52;;;0.50;;
18499;SDS011;9379;52.134;11.576;2023-07-20T13:03:01;0.60;;;0.50;;
18499;SDS011;9379;52.134;11.576;2023-07-20T13:05:29;0.40;;;0.40;;
18499;SDS011;9379;52.134;11.576;2023-07-20T13:07:56;0.88;;;0.50;;
18499;SDS011;9379;52.134;11.576;2023-07-20T13:10:24;1.40;;;0.75;;
18499;SDS011;9379;52.134;11.576;2023-07-20T13:12:52;0.30;;;0.30;;
18499;SDS011;9379;52.134;11.576;2023-07-20T13:15:19;0.40;;;0.35;;
18499;SDS011;9379;52.134;11.576;2023-07-20T13:17:45;0.60;;;0.40;;
18499;SDS011;9379;52.134;11.576;2023-07-20T13:20:12;0.60;;;0.40;;
18499;SDS011;9379;52.134;11.576;2023-07-20T13:22:39;0.43;;;0.43;;
18499;SDS011;9379;52.134;11.576;2023-07-20T13:25:07;0.30;;;0.30;;
18499;SDS011;9379;52.134;11.576;2023-07-20T13:27:34;1.10;;;0.47;;
18499;SDS011;9379;52.134;11.576;2023-07-20T13:30:03;0.85;;;0.57;;
18499;SDS011;9379;52.134;11.576;2023-07-20T13:32:32;0.50;;;0.50;;
18499;SDS011;9379;52.134;11.576;2023-07-20T13:34:59;0.30;;;0.30;;
18499;SDS011;9379;52.134;11.576;2023-07-20T13:37:26;0.73;;;0.52;;
18499;SDS011;9379;52.134;11.576;2023-07-20T13:39:53;0.52;;;0.52;;
18499;SDS011;9379;52.134;11.576;2023-07-20T13:42:20;0.50;;;0.43;;
18499;SDS011;9379;52.134;11.576;2023-07-20T13:44:47;0.70;;;0.70;;
18499;SDS011;9379;52.134;11.576;2023-07-20T13:47:15;0.38;;;0.38;;
18499;SDS011;9379;52.134;11.576;2023-07-20T13:49:42;3.40;;;0.40;;
18499;SDS011;9379;52.134;11.576;2023-07-20T13:52:09;3.13;;;0.50;;
18499;SDS011;9379;52.134;11.576;2023-07-20T13:54:36;0.52;;;0.40;;
18499;SDS011;9379;52.134;11.576;2023-07-20T13:57:03;0.30;;;0.30;;
18499;SDS011;9379;52.134;11.576;2023-07-20T13:59:30;0.32;;;0.32;;
18499;SDS011;9379;52.134;11.576;2023-07-20T14:01:57;2.08;;;0.38;;
18499;SDS011;9379;52.134;11.576;2023-07-20T14:04:25;0.50;;;0.45;;
18499;SDS011;9379;52.134;11.576;2023-07-20T14:06:51;0.80;;;0.80;;
18499;SDS011;9379;52.134;11.576;2023-07-20T14:09:18;0.55;;;0.50;;
18499;SDS011;9379;52.134;11.576;2023-07-20T14:11:45;0.60;;;0.50;;
18499;SDS011;9379;52.134;11.576;2023-07-20T14:14:12;0.65;;;0.65;;
18499;SDS011;9379;52.134;11.576;2023-07-20T14:16:38;1.08;;;0.55;;
18499;SDS011;9379;52.134;11.576;2023-07-20T14:19:05;0.43;;;0.32;;
18499;SDS011;9379;52.134;11.576;2023-07-20T14:21:33;1.05;;;0.70;;
18499;SDS011;9379;52.134;11.576;2023-07-20T14:24:00;0.30;;;0.20;;
18499;SDS011;9379;52.134;11.576;2023-07-20T14:26:27;0.40;;;0.30;;
18499;SDS011;9379;52.134;11.576;2023-07-20T14:28:54;0.52;;;0.52;;
18499;SDS011;9379;52.134;11.576;2023-07-20T14:31:20;0.70;;;0.50;;
18499;SDS011;9379;52.134;11.576;2023-07-20T14:33:47;1.15;;;0.65;;
18499;SDS011;9379;52.134;11.576;2023-07-20T14:36:14;0.68;;;0.50;;
18499;SDS011;9379;52.134;11.576;2023-07-20T14:38:42;0.95;;;0.60;;
18499;SDS011;9379;52.134;11.576;2023-07-20T14:41:09;0.93;;;0.70;;
18499;SDS011;9379;52.134;11.576;2023-07-20T14:43:35;0.52;;;0.47;;
18499;SDS011;9379;52.134;11.576;2023-07-20T14:46:03;0.50;;;0.50;;
18499;SDS011;9379;52.134;11.576;2023-07-20T14:48:30;3.03;;;0.40;;
18499;SDS011;9379;52.134;11.576;2023-07-20T14:50:57;0.20;;;0.20;;
18499;SDS011;9379;52.134;11.576;2023-07-20T14:53:24;0.40;;;0.32;;
18499;SDS011;9379;52.134;11.576;2023-07-20T14:55:59;0.85;;;0.73;;
18499;SDS011;9379;52.134;11.576;2023-07-20T14:58:26;0.40;;;0.40;;